Time;durP1;ratioP1;P1;durP2;ratioP2;P2;SDS_P1;SDS_P2;PMS_P1;PMS_P2;Temp;Humidity;BMP_temperature;BMP_pressure;BME280_temperature;BME280_humidity;BME280_pressure;Samples;Min_cycle;Max_cycle;Signal;HPM_P1;HPM_P2
2022/10/28 00:00:08;;;;;;;10.40;4.70;;;;;;;21.26;52.66;101282.81;829194;23;1145;-77
2022/10/28 00:00:29;;;;;;;10.82;4.28;;;;;;;21.23;52.61;101274.88;828033;23;1298;-76
2022/10/28 00:00:50;;;;;;;9.30;3.97;;;;;;;21.24;52.65;101279.28;824126;23;1640;-77
2022/10/28 00:01:15;;;;;;;8.45;3.90;;;;;;;21.30;52.68;101289.88;820303;24;1388;-76
2022/10/28 00:01:36;;;;;;;6.75;4.10;;;;;;;21.26;52.78;101281.94;831726;23;846;-77
2022/10/28 00:01:56;;;;;;;6.93;4.30;;;;;;;21.21;52.84;101271.38;831962;23;1222;-76
2022/10/28 00:02:17;;;;;;;8.63;4.45;;;;;;;21.24;52.79;101284.59;831795;23;1433;-76
2022/10/28 00:02:39;;;;;;;10.25;4.47;;;;;;;21.23;52.67;101282.84;825632;23;807;-76
2022/10/28 00:03:00;;;;;;;11.02;4.40;;;;;;;21.22;52.79;101281.09;833102;23;962;-76
2022/10/28 00:03:21;;;;;;;11.90;4.90;;;;;;;21.27;52.75;101289.00;829380;23;1164;-77
2022/10/28 00:03:44;;;;;;;11.53;4.70;;;;;;;21.19;52.97;101278.44;825580;23;778;-76
2022/10/28 00:04:05;;;;;;;10.80;4.70;;;;;;;21.22;52.94;101286.41;825479;24;1090;-77
2022/10/28 00:04:25;;;;;;;9.07;4.30;;;;;;;21.25;52.95;101289.00;825589;23;879;-76
2022/10/28 00:04:46;;;;;;;7.57;4.47;;;;;;;21.17;53.13;101282.88;830598;23;795;-77
2022/10/28 00:05:07;;;;;;;9.55;4.40;;;;;;;21.18;53.07;101276.69;828740;23;1217;-76
2022/10/28 00:05:32;;;;;;;10.75;4.55;;;;;;;21.14;52.95;101269.66;835686;23;1187;-76
2022/10/28 00:06:04;;;;;;;11.60;4.82;;;;;;;21.19;53.11;101286.41;831627;23;846;-76
2022/10/28 00:06:29;;;;;;;9.85;4.78;;;;;;;21.14;52.93;101269.66;828169;23;1193;-76
2022/10/28 00:06:50;;;;;;;8.57;4.18;;;;;;;21.20;52.80;101277.53;831408;23;1253;-77
2022/10/28 00:07:11;;;;;;;8.60;4.15;;;;;;;21.16;52.80;101267.88;824084;23;1309;-76
2022/10/28 00:07:32;;;;;;;8.25;4.28;;;;;;;21.17;52.71;101278.47;824083;24;1056;-76
2022/10/28 00:07:53;;;;;;;7.50;4.50;;;;;;;21.25;52.92;101293.47;829164;23;1911;-76
2022/10/28 00:08:13;;;;;;;10.32;4.63;;;;;;;21.16;53.03;101282.03;825567;24;991;-77
2022/10/28 00:08:35;;;;;;;10.18;4.60;;;;;;;21.24;53.08;101289.91;824146;24;1455;-76
2022/10/28 00:08:56;;;;;;;9.95;4.38;;;;;;;21.15;52.84;101276.72;829431;23;979;-76
2022/10/28 00:09:17;;;;;;;8.18;4.30;;;;;;;21.20;53.02;101282.84;831926;23;1200;-76
2022/10/28 00:09:39;;;;;;;9.05;4.68;;;;;;;21.21;52.89;101284.66;831371;23;1118;-77
2022/10/28 00:10:00;;;;;;;9.60;5.18;;;;;;;21.23;52.60;101282.84;823578;23;1174;-76
2022/10/28 00:10:21;;;;;;;8.20;4.87;;;;;;;21.24;52.78;101284.59;827986;23;1039;-76
2022/10/28 00:10:41;;;;;;;8.23;4.63;;;;;;;21.19;52.65;101276.69;825619;24;740;-76
2022/10/28 00:11:09;;;;;;;7.30;4.50;;;;;;;21.29;52.71;101292.53;833121;23;1057;-76
2022/10/28 00:11:32;;;;;;;9.05;4.72;;;;;;;21.19;52.81;101276.69;827979;23;890;-76
2022/10/28 00:11:53;;;;;;;12.27;4.95;;;;;;;21.26;52.74;101282.81;825306;23;1124;-75
2022/10/28 00:12:13;;;;;;;14.30;4.97;;;;;;;21.18;52.93;101274.94;828149;23;951;-77
2022/10/28 00:12:36;;;;;;;9.90;4.80;;;;;;;21.26;52.79;101284.59;824123;24;1428;-76
2022/10/28 00:12:58;;;;;;;9.70;4.82;;;;;;;21.20;52.61;101272.25;827867;23;1264;-76
2022/10/28 00:13:19;;;;;;;10.93;4.90;;;;;;;21.21;52.71;101279.34;820238;24;1186;-76
2022/10/28 00:13:40;;;;;;;12.10;4.90;;;;;;;21.19;52.94;101279.34;825603;23;776;-76
2022/10/28 00:14:03;;;;;;;10.65;4.60;;;;;;;21.21;52.85;101279.34;827972;23;1331;-76
2022/10/28 00:14:24;;;;;;;9.75;4.38;;;;;;;21.19;52.88;101273.13;832016;23;890;-76
2022/10/28 00:14:44;;;;;;;7.88;4.15;;;;;;;21.25;52.86;101280.19;833317;23;740;-76
2022/10/28 00:15:05;;;;;;;7.85;4.30;;;;;;;21.13;52.80;101263.47;827846;23;1170;-76
2022/10/28 00:15:27;;;;;;;7.22;4.40;;;;;;;21.17;52.87;101264.31;833285;23;1302;-76
2022/10/28 00:15:48;;;;;;;7.47;4.25;;;;;;;21.17;52.87;101273.16;831815;23;1174;-76
2022/10/28 00:16:14;;;;;;;9.18;4.20;;;;;;;21.19;52.85;101267.81;820292;24;1467;-76
2022/10/28 00:16:36;;;;;;;11.55;4.50;;;;;;;21.13;52.87;101259.94;828097;23;1223;-76
2022/10/28 00:16:57;;;;;;;14.85;5.18;;;;;;;21.20;52.71;101277.53;825450;23;1078;-76
2022/10/28 00:17:17;;;;;;;14.53;5.03;;;;;;;21.21;52.82;101268.72;821529;23;1120;-76
2022/10/28 00:17:38;;;;;;;12.52;4.70;;;;;;;21.15;52.80;101263.47;824004;23;1040;-76
2022/10/28 00:17:59;;;;;;;8.50;4.20;;;;;;;21.17;52.75;101266.97;824177;24;1262;-76
2022/10/28 00:18:20;;;;;;;7.80;4.07;;;;;;;21.22;52.87;101281.97;828006;23;1190;-76
2022/10/28 00:18:42;;;;;;;7.75;4.30;;;;;;;21.17;52.85;101269.63;831965;23;1460;-77
2022/10/28 00:19:05;;;;;;;8.02;4.53;;;;;;;21.19;52.88;101267.81;835737;23;1102;-76
2022/10/28 00:19:26;;;;;;;8.73;4.97;;;;;;;21.17;52.85;101273.16;831920;23;1207;-76
2022/10/28 00:19:46;;;;;;;8.75;4.70;;;;;;;21.10;52.93;101264.34;823431;23;1286;-76
2022/10/28 00:20:08;;;;;;;8.00;4.43;;;;;;;21.15;52.99;101263.47;821479;24;1030;-76
2022/10/28 00:20:30;;;;;;;9.40;4.47;;;;;;;21.15;52.80;101268.75;824124;24;1089;-76
2022/10/28 00:20:50;;;;;;;9.18;4.65;;;;;;;21.10;52.87;101267.00;827927;23;1117;-76
2022/10/28 00:21:18;;;;;;;10.30;4.87;;;;;;;21.11;52.92;101262.59;827900;23;1195;-76
2022/10/28 00:21:41;;;;;;;10.88;4.90;;;;;;;21.17;52.91;101272.28;827983;23;867;-76
2022/10/28 00:22:02;;;;;;;11.48;4.95;;;;;;;21.17;52.81;101277.59;820021;24;1321;-77
2022/10/28 00:22:23;;;;;;;11.07;4.95;;;;;;;21.09;52.98;101265.25;825579;24;755;-76
2022/10/28 00:22:43;;;;;;;10.35;4.88;;;;;;;21.12;52.76;101268.78;820314;24;1255;-76
2022/10/28 00:23:04;;;;;;;9.73;4.90;;;;;;;21.11;53.09;101267.91;827821;23;1092;-77
2022/10/28 00:23:25;;;;;;;10.98;4.90;;;;;;;21.17;53.00;101274.94;829368;23;780;-76
2022/10/28 00:23:45;;;;;;;10.30;4.70;;;;;;;21.09;53.02;101265.25;829331;23;716;-76
2022/10/28 00:24:08;;;;;;;10.93;4.50;;;;;;;21.07;52.95;101267.06;825427;24;1087;-76
2022/10/28 00:24:29;;;;;;;8.73;4.50;;;;;;;21.09;52.99;101267.03;827996;23;1438;-76
2022/10/28 00:24:50;;;;;;;8.63;4.25;;;;;;;21.10;52.82;101271.47;824084;24;1179;-76
2022/10/28 00:25:11;;;;;;;8.35;4.35;;;;;;;21.08;52.86;101262.59;827941;23;1163;-76
2022/10/28 00:25:32;;;;;;;12.27;4.47;;;;;;;21.09;53.00;101269.69;828019;23;1005;-76
2022/10/28 00:25:52;;;;;;;12.07;4.70;;;;;;;21.15;53.21;101274.06;820292;24;1291;-76
2022/10/28 00:26:18;;;;;;;13.83;4.97;;;;;;;21.19;52.94;101282.00;828056;23;1056;-77
2022/10/28 00:26:44;;;;;;;10.57;4.70;;;;;;;21.17;52.88;101278.47;829404;23;1573;-76
2022/10/28 00:27:05;;;;;;;8.48;4.80;;;;;;;21.17;52.77;101282.88;827909;23;1111;-76
2022/10/28 00:27:28;;;;;;;11.60;4.88;;;;;;;21.15;53.10;101274.06;820145;24;1369;-76
2022/10/28 00:27:51;;;;;;;12.30;4.90;;;;;;;21.08;53.06;101268.81;823755;23;1502;-76
2022/10/28 00:28:11;;;;;;;12.90;4.50;;;;;;;21.14;52.91;101275.84;824200;24;1592;-77
2022/10/28 00:28:32;;;;;;;9.70;4.27;;;;;;;21.07;53.02;101267.06;824229;24;1214;-76
2022/10/28 00:28:58;;;;;;;8.95;4.40;;;;;;;21.07;53.06;101267.06;827980;23;1235;-76
2022/10/28 00:29:19;;;;;;;8.80;4.90;;;;;;;21.12;53.11;101274.06;827959;23;1180;-77
2022/10/28 00:29:40;;;;;;;9.20;5.10;;;;;;;21.07;52.86;101267.06;828950;23;744;-76
2022/10/28 00:30:00;;;;;;;7.55;4.78;;;;;;;21.08;53.04;101268.81;829166;23;962;-76
2022/10/28 00:30:22;;;;;;;10.18;5.00;;;;;;;21.11;52.97;101275.88;823992;23;1448;-77
2022/10/28 00:30:43;;;;;;;9.90;5.00;;;;;;;21.01;53.19;101263.59;827394;23;1282;-76
2022/10/28 00:31:07;;;;;;;10.43;4.82;;;;;;;21.03;53.04;101265.31;827868;23;1384;-77
2022/10/28 00:31:29;;;;;;;9.48;4.50;;;;;;;21.00;53.37;101262.69;820274;24;1894;-76
2022/10/28 00:31:51;;;;;;;10.00;4.60;;;;;;;21.08;53.05;101274.13;820208;24;1186;-76
2022/10/28 00:32:12;;;;;;;12.60;4.65;;;;;;;21.01;53.32;101267.09;816443;24;1250;-76
2022/10/28 00:32:32;;;;;;;10.50;4.50;;;;;;;20.95;53.45;101262.72;824083;23;1198;-76
2022/10/28 00:32:53;;;;;;;11.23;4.50;;;;;;;20.98;53.62;101267.13;828997;23;1116;-76
2022/10/28 00:33:13;;;;;;;8.63;4.20;;;;;;;20.95;53.57;101256.53;830207;23;1133;-76
2022/10/28 00:33:35;;;;;;;11.35;4.50;;;;;;;20.93;53.45;101255.66;832064;23;1378;-77
2022/10/28 00:34:00;;;;;;;11.27;4.50;;;;;;;20.90;53.67;101258.34;824054;24;1038;-76
2022/10/28 00:34:21;;;;;;;8.57;4.40;;;;;;;20.91;53.86;101266.28;824176;24;857;-76
2022/10/28 00:34:42;;;;;;;8.50;4.60;;;;;;;20.87;53.73;101253.94;829441;23;716;-77
2022/10/28 00:35:02;;;;;;;7.68;4.40;;;;;;;20.91;53.82;101265.41;823825;24;1200;-76
2022/10/28 00:35:23;;;;;;;7.72;4.50;;;;;;;20.84;54.02;101258.38;820348;24;1295;-76
2022/10/28 00:35:44;;;;;;;8.70;4.50;;;;;;;20.90;53.89;101258.34;820313;24;1040;-76
2022/10/28 00:36:12;;;;;;;11.25;4.68;;;;;;;20.94;54.02;101278.63;825361;24;1112;-76
2022/10/28 00:36:36;;;;;;;13.52;4.90;;;;;;;20.92;54.25;101272.47;827861;23;1273;-76
2022/10/28 00:36:56;;;;;;;10.90;4.80;;;;;;;20.88;54.11;101262.75;831804;23;1208;-76
2022/10/28 00:37:17;;;;;;;10.10;4.50;;;;;;;20.94;53.98;101270.69;824103;24;1182;-76
2022/10/28 00:37:38;;;;;;;10.68;4.53;;;;;;;20.88;54.17;101260.09;821444;24;811;-76
2022/10/28 00:37:59;;;;;;;9.80;4.50;;;;;;;20.85;54.16;101261.03;820224;24;1311;-76
2022/10/28 00:38:19;;;;;;;9.43;4.50;;;;;;;20.84;54.08;101264.56;823926;23;1220;-76
2022/10/28 00:38:41;;;;;;;12.85;4.78;;;;;;;20.92;54.07;101276.03;832084;23;1176;-77
2022/10/28 00:39:08;;;;;;;14.55;4.90;;;;;;;20.93;53.99;101263.63;831849;23;974;-76
2022/10/28 00:39:29;;;;;;;14.10;4.85;;;;;;;21.05;53.86;101266.19;835650;23;1625;-76
2022/10/28 00:39:50;;;;;;;11.45;4.50;;;;;;;21.03;53.75;101253.81;835345;23;1297;-76
2022/10/28 00:40:11;;;;;;;9.80;4.70;;;;;;;21.13;53.67;101265.25;827828;23;1021;-76
2022/10/28 00:40:35;;;;;;;13.30;4.93;;;;;;;21.17;53.67;101277.59;829315;23;890;-76
2022/10/28 00:40:55;;;;;;;12.68;5.10;;;;;;;20.93;53.77;101247.69;824094;23;1076;-75
2022/10/28 00:41:19;;;;;;;17.67;5.50;;;;;;;20.88;54.18;101265.41;825243;24;1102;-76
2022/10/28 00:41:45;;;;;;;14.18;5.57;;;;;;;20.84;54.39;101258.38;827302;23;912;-76
2022/10/28 00:42:06;;;;;;;12.27;5.25;;;;;;;20.77;54.55;101260.22;830589;23;1077;-77
2022/10/28 00:42:27;;;;;;;8.80;4.93;;;;;;;20.72;54.66;101246.94;830763;23;1194;-76
2022/10/28 00:42:49;;;;;;;6.50;4.30;;;;;;;20.74;54.46;101258.47;827971;23;1334;-76
2022/10/28 00:43:11;;;;;;;6.55;4.20;;;;;;;20.73;54.57;101251.41;827936;23;1329;-76
2022/10/28 00:43:51;;;;;;;10.02;4.25;;;;;;;20.76;54.39;101255.78;827914;23;1233;-76
2022/10/28 00:44:49;;;;;;;11.13;4.60;;;;;;;20.84;54.36;101269.88;824709;23;1027;-76
2022/10/28 00:45:10;;;;;;;9.35;4.80;;;;;;;20.77;54.22;101252.25;829241;23;1077;-76
2022/10/28 00:45:31;;;;;;;9.90;5.10;;;;;;;20.75;54.18;101259.31;828973;23;795;-76
2022/10/28 00:45:53;;;;;;;9.40;5.20;;;;;;;20.81;54.08;101264.59;829320;23;1009;-76
2022/10/28 00:46:26;;;;;;;8.52;5.00;;;;;;;20.85;53.94;101254.84;833269;23;994;-77
2022/10/28 00:46:50;;;;;;;8.93;4.70;;;;;;;20.84;53.75;101263.69;833257;23;1022;-76
2022/10/28 00:47:38;;;;;;;10.88;4.80;;;;;;;20.91;53.77;101270.72;828065;23;997;-77
2022/10/28 00:48:01;;;;;;;10.68;4.68;;;;;;;20.81;53.68;101252.22;832558;23;1908;-76
2022/10/28 00:48:23;;;;;;;10.38;4.80;;;;;;;20.87;53.67;101258.34;828041;23;1251;-76
2022/10/28 00:48:49;;;;;;;10.45;4.88;;;;;;;20.85;53.46;101252.19;820190;23;1202;-76
2022/10/28 00:49:18;;;;;;;11.60;5.00;;;;;;;20.87;53.64;101261.00;823929;24;1849;-76
2022/10/28 00:49:40;;;;;;;13.77;4.85;;;;;;;20.85;53.37;101254.84;823712;24;854;-76
2022/10/28 00:50:13;;;;;;;12.73;4.80;;;;;;;21.12;53.27;101282.03;829117;23;1086;-76
2022/10/28 00:50:44;;;;;;;8.43;4.65;;;;;;;21.14;52.87;101256.41;832063;23;1224;-76
2022/10/28 00:51:05;;;;;;;10.75;4.60;;;;;;;21.19;52.72;101259.88;831650;23;1926;-76
2022/10/28 00:51:29;;;;;;;11.68;4.50;;;;;;;21.18;52.56;101261.66;827900;23;1456;-76
2022/10/28 00:51:58;;;;;;;10.38;4.50;;;;;;;21.31;52.42;101264.19;827941;23;1202;-76
2022/10/28 00:52:25;;;;;;;9.20;4.45;;;;;;;21.14;52.55;101257.25;833357;23;1198;-77
2022/10/28 00:52:51;;;;;;;10.13;4.47;;;;;;;21.01;52.96;101256.47;828178;23;1116;-77
2022/10/28 00:53:20;;;;;;;10.98;4.50;;;;;;;21.00;52.99;101260.03;824161;24;1072;-76
2022/10/28 00:53:43;;;;;;;8.75;4.47;;;;;;;20.95;52.95;101259.19;826355;23;1260;-76
2022/10/28 00:54:05;;;;;;;8.90;4.55;;;;;;;20.90;53.15;101253.03;833314;23;1168;-77
2022/10/28 00:54:26;;;;;;;9.18;4.55;;;;;;;20.92;53.21;101267.16;828500;23;1153;-76
2022/10/28 00:54:50;;;;;;;9.77;4.13;;;;;;;20.87;53.07;101250.41;828180;23;1448;-76
2022/10/28 00:55:14;;;;;;;8.25;3.70;;;;;;;20.86;53.17;101259.25;824220;24;1327;-76
2022/10/28 00:55:36;;;;;;;9.50;3.83;;;;;;;20.82;52.98;101253.97;826016;24;907;-77
2022/10/28 00:55:59;;;;;;;10.18;4.20;;;;;;;20.82;53.36;101248.69;825950;24;1004;-76
2022/10/28 00:56:22;;;;;;;9.65;4.20;;;;;;;20.84;53.13;101253.09;829927;23;1082;-76
2022/10/28 00:56:45;;;;;;;6.82;4.07;;;;;;;20.87;53.23;101266.31;829822;23;792;-77
2022/10/28 00:57:11;;;;;;;8.65;4.07;;;;;;;20.80;53.21;101253.13;828244;23;1073;-76
2022/10/28 00:57:35;;;;;;;9.93;3.97;;;;;;;20.89;53.16;101264.56;831721;23;858;-76
2022/10/28 00:57:59;;;;;;;11.60;4.20;;;;;;;20.81;53.01;101257.53;824352;24;1326;-76
2022/10/28 00:58:23;;;;;;;11.43;4.47;;;;;;;20.84;52.83;101253.09;820469;24;1681;-76
2022/10/28 00:58:45;;;;;;;11.25;4.20;;;;;;;20.79;52.96;101253.97;825754;24;871;-76
2022/10/28 00:59:14;;;;;;;10.25;4.22;;;;;;;20.77;53.00;101245.16;825538;23;1088;-76
2022/10/28 00:59:41;;;;;;;8.18;4.07;;;;;;;20.81;52.92;101257.53;828942;23;1088;-76
2022/10/28 01:00:04;;;;;;;9.88;4.03;;;;;;;20.99;52.77;101260.94;831843;23;1188;-76
2022/10/28 01:00:26;;;;;;;9.93;4.32;;;;;;;21.05;52.77;101249.38;831881;23;1469;-76
2022/10/28 01:00:48;;;;;;;8.82;4.50;;;;;;;21.10;52.44;101253.75;824112;23;1625;-77
2022/10/28 01:01:10;;;;;;;10.52;4.45;;;;;;;21.07;52.45;101260.84;831984;23;1229;-76
2022/10/28 01:01:30;;;;;;;12.70;4.40;;;;;;;21.04;52.50;101256.47;829497;23;764;-76
2022/10/28 01:01:51;;;;;;;12.60;4.67;;;;;;;21.05;52.70;101260.88;831787;23;1160;-77
2022/10/28 01:02:12;;;;;;;10.10;4.63;;;;;;;21.06;52.74;101262.63;829467;23;1067;-77
2022/10/28 01:02:40;;;;;;;6.63;4.28;;;;;;;20.95;52.79;101249.47;828062;23;1193;-76
2022/10/28 01:03:01;;;;;;;6.03;3.90;;;;;;;20.89;53.04;101253.94;831993;23;1294;-75
2022/10/28 01:03:23;;;;;;;10.63;4.00;;;;;;;20.84;53.25;101248.63;831900;23;1340;-76
2022/10/28 01:03:46;;;;;;;12.43;4.30;;;;;;;20.93;53.00;101250.34;824196;24;1281;-76
2022/10/28 01:04:07;;;;;;;12.48;4.43;;;;;;;20.95;53.18;101259.19;824079;24;1237;-75
2022/10/28 01:04:28;;;;;;;8.65;4.70;;;;;;;20.94;52.94;101249.47;825754;24;801;-76
2022/10/28 01:04:49;;;;;;;7.00;4.50;;;;;;;20.95;52.81;101240.59;823923;23;1327;-76
2022/10/28 01:05:12;;;;;;;7.05;4.30;;;;;;;21.01;52.89;101251.19;824192;24;1308;-76
2022/10/28 01:05:35;;;;;;;6.72;4.15;;;;;;;20.98;52.85;101245.91;824241;23;1218;-76
2022/10/28 01:05:56;;;;;;;7.30;4.38;;;;;;;21.05;52.66;101252.94;828010;23;1762;-76
2022/10/28 01:06:17;;;;;;;7.93;4.57;;;;;;;21.04;52.87;101256.47;829420;23;1030;-75
2022/10/28 01:06:40;;;;;;;8.68;4.40;;;;;;;21.03;52.55;101244.06;824347;24;1229;-76
2022/10/28 01:07:02;;;;;;;11.00;4.40;;;;;;;21.09;52.60;101252.00;820294;24;1154;-76
2022/10/28 01:07:23;;;;;;;8.77;4.30;;;;;;;20.94;52.76;101239.75;825707;24;748;-77
2022/10/28 01:07:44;;;;;;;7.93;4.28;;;;;;;20.90;52.92;101247.75;829584;23;803;-77
2022/10/28 01:08:05;;;;;;;10.23;4.40;;;;;;;20.80;53.23;101242.50;831955;23;1952;-76
2022/10/28 01:08:26;;;;;;;11.88;4.45;;;;;;;20.76;53.21;101239.84;836072;23;1409;-77
2022/10/28 01:08:46;;;;;;;13.93;4.80;;;;;;;20.73;53.14;101235.47;832051;23;1195;-76
2022/10/28 01:09:07;;;;;;;15.52;5.05;;;;;;;20.71;53.29;101231.94;824121;24;1134;-76
2022/10/28 01:09:28;;;;;;;15.45;4.75;;;;;;;20.72;53.31;101230.19;827954;23;1466;-76
2022/10/28 01:09:50;;;;;;;12.82;4.45;;;;;;;20.70;53.25;101230.19;827077;23;1333;-76
2022/10/28 01:10:12;;;;;;;9.82;4.10;;;;;;;20.69;53.38;101234.59;831744;23;1148;-75
2022/10/28 01:10:51;;;;;;;7.93;4.10;;;;;;;20.76;53.44;101246.06;828205;23;1204;-76
2022/10/28 01:11:30;;;;;;;7.72;3.88;;;;;;;20.75;53.51;101244.31;829309;23;1018;-76
2022/10/28 01:12:22;;;;;;;8.38;3.80;;;;;;;20.69;53.51;101239.00;831717;23;1239;-77
2022/10/28 01:13:18;;;;;;;5.78;4.13;;;;;;;20.73;53.68;101246.09;835698;23;1560;-76
2022/10/28 01:13:47;;;;;;;11.02;4.80;;;;;;;20.71;53.75;101242.53;833234;23;1360;-77
2022/10/28 01:14:17;;;;;;;8.98;4.20;;;;;;;20.71;53.65;101237.25;828117;23;1131;-76
2022/10/28 01:15:13;;;;;;;8.52;3.92;;;;;;;20.71;53.65;101239.03;825719;24;854;-76
2022/10/28 01:15:48;;;;;;;11.20;4.60;;;;;;;20.60;53.83;101218.72;828119;23;871;-76
2022/10/28 01:16:38;;;;;;;9.82;4.60;;;;;;;20.68;53.84;101238.13;831942;23;1273;-76
2022/10/28 01:17:11;;;;;;;13.48;5.03;;;;;;;20.57;54.19;101217.91;820014;24;1225;-76
2022/10/28 01:17:47;;;;;;;12.90;4.90;;;;;;;20.57;54.19;101223.19;827986;23;1101;-77
2022/10/28 01:18:32;;;;;;;8.32;4.50;;;;;;;20.55;54.27;101220.53;829042;23;1036;-77
2022/10/28 01:19:07;;;;;;;8.73;4.10;;;;;;;20.54;54.48;101224.09;824109;24;1015;-76
2022/10/28 01:19:56;;;;;;;9.75;4.60;;;;;;;20.60;54.31;101228.47;825283;24;842;-76
2022/10/28 01:20:26;;;;;;;8.32;4.45;;;;;;;20.62;54.12;101224.91;829477;23;1078;-76
2022/10/28 01:21:14;;;;;;;8.50;4.30;;;;;;;20.64;54.05;101227.53;832040;23;834;-76
2022/10/28 01:21:53;;;;;;;6.72;4.15;;;;;;;20.63;54.06;101231.09;831900;23;1185;-76
2022/10/28 01:22:24;;;;;;;9.43;4.50;;;;;;;20.55;54.02;101207.28;828100;23;1129;-77
2022/10/28 01:23:03;;;;;;;11.25;4.70;;;;;;;20.65;54.02;101226.66;827515;23;800;-76
2022/10/28 01:23:38;;;;;;;10.65;4.38;;;;;;;20.58;54.24;101219.66;828268;23;866;-76
2022/10/28 01:24:02;;;;;;;9.48;4.10;;;;;;;20.61;54.24;101224.91;828515;23;1975;-76
2022/10/28 01:24:55;;;;;;;10.88;4.30;;;;;;;20.51;54.04;101214.38;829624;23;814;-76
2022/10/28 01:25:57;;;;;;;12.43;4.70;;;;;;;20.73;53.83;101216.91;828139;23;1260;-76
2022/10/28 01:26:39;;;;;;;7.75;4.38;;;;;;;20.71;53.68;101225.78;824244;24;1216;-76
2022/10/28 01:27:14;;;;;;;9.45;4.43;;;;;;;20.61;53.49;101214.31;818189;24;1055;-77
2022/10/28 01:27:42;;;;;;;8.25;4.43;;;;;;;20.77;53.16;101220.44;817794;24;1430;-76
2022/10/28 01:28:24;;;;;;;7.05;4.47;;;;;;;21.02;52.44;101231.69;816292;24;1932;-76
2022/10/28 01:29:09;;;;;;;11.02;4.75;;;;;;;21.05;52.11;101210.47;818365;24;814;-76
2022/10/28 01:29:45;;;;;;;10.75;4.88;;;;;;;21.17;51.94;101228.06;818838;24;957;-76
2022/10/28 01:30:07;;;;;;;7.95;4.40;;;;;;;21.13;52.21;101214.84;816398;24;1043;-77
2022/10/28 01:30:49;;;;;;;8.80;4.53;;;;;;;21.14;52.04;101219.25;812800;24;1139;-76
2022/10/28 01:31:24;;;;;;;14.98;4.75;;;;;;;21.12;52.20;101211.28;812774;24;1095;-76
2022/10/28 01:32:03;;;;;;;15.48;4.40;;;;;;;21.08;52.47;101220.16;816668;24;855;-76
2022/10/28 01:32:31;;;;;;;12.43;4.70;;;;;;;21.14;52.58;101220.09;827490;23;963;-76
2022/10/28 01:33:15;;;;;;;11.07;4.90;;;;;;;20.81;53.23;101207.13;828233;23;1133;-76
2022/10/28 01:33:48;;;;;;;9.63;4.57;;;;;;;20.78;53.56;101230.16;832173;23;834;-77
2022/10/28 01:34:16;;;;;;;10.10;4.60;;;;;;;20.71;53.86;101217.81;831319;23;1129;-76
2022/10/28 01:35:08;;;;;;;12.25;4.60;;;;;;;20.66;53.93;101217.81;828305;23;834;-76
2022/10/28 01:35:42;;;;;;;8.90;4.80;;;;;;;20.60;54.37;101233.78;825920;24;712;-77
2022/10/28 01:36:08;;;;;;;8.70;5.00;;;;;;;20.54;54.65;101224.94;830390;23;1403;-76
2022/10/28 01:36:52;;;;;;;7.93;4.63;;;;;;;20.51;54.72;101224.97;829915;23;1254;-76
2022/10/28 01:37:39;;;;;;;9.40;4.28;;;;;;;20.48;54.86;101219.69;829045;23;998;-76
2022/10/28 01:38:09;;;;;;;12.52;4.72;;;;;;;20.61;54.49;101235.53;829589;23;1039;-76
2022/10/28 01:38:44;;;;;;;8.38;4.72;;;;;;;20.40;54.43;101206.50;831319;23;1038;-76
2022/10/28 01:39:21;;;;;;;8.40;4.82;;;;;;;20.38;54.50;101215.34;833530;23;1129;-76
2022/10/28 01:39:51;;;;;;;8.63;4.82;;;;;;;20.35;54.76;101215.38;836331;23;799;-77
2022/10/28 01:40:40;;;;;;;7.30;4.47;;;;;;;20.33;54.79;101217.13;824928;23;1020;-76
2022/10/28 01:41:27;;;;;;;8.70;4.40;;;;;;;20.38;54.81;101216.22;826970;23;1588;-76
2022/10/28 01:41:57;;;;;;;11.13;4.80;;;;;;;20.32;54.91;101210.06;827217;24;1077;-76
2022/10/28 01:42:30;;;;;;;13.43;5.20;;;;;;;20.38;55.10;101218.88;834409;23;1070;-76
2022/10/28 01:43:34;;;;;;;11.65;5.15;;;;;;;20.37;55.16;101209.16;831072;23;1280;-76
2022/10/28 01:44:20;;;;;;;11.68;5.00;;;;;;;20.28;55.07;101202.16;822869;23;1153;-77
2022/10/28 01:44:50;;;;;;;8.55;4.50;;;;;;;20.29;55.26;101208.34;829961;23;938;-76
2022/10/28 01:45:22;;;;;;;7.43;4.60;;;;;;;20.22;55.45;101204.81;829107;23;1230;-76
2022/10/28 01:46:01;;;;;;;8.38;4.78;;;;;;;20.32;55.34;101215.38;830583;23;1106;-77
2022/10/28 01:46:30;;;;;;;9.77;4.53;;;;;;;20.20;55.45;101196.00;834070;23;1160;-77
2022/10/28 01:46:56;;;;;;;11.25;4.80;;;;;;;20.28;55.54;101210.09;824730;23;1258;-77
2022/10/28 01:47:27;;;;;;;11.48;4.95;;;;;;;20.23;55.45;101203.94;830219;23;990;-76
2022/10/28 01:48:01;;;;;;;9.77;5.10;;;;;;;20.23;55.49;101205.72;821012;24;1057;-76
2022/10/28 01:48:38;;;;;;;11.85;5.47;;;;;;;20.18;55.47;101199.56;828956;23;1265;-76
2022/10/28 01:49:06;;;;;;;11.18;5.10;;;;;;;20.19;55.48;101199.56;828629;23;986;-77
2022/10/28 01:49:53;;;;;;;7.00;4.60;;;;;;;20.23;55.50;101219.81;824663;24;1348;-77
2022/10/28 01:50:22;;;;;;;6.65;4.65;;;;;;;20.23;55.46;101211.00;820664;24;983;-77
2022/10/28 01:50:51;;;;;;;7.50;4.50;;;;;;;20.20;55.43;101211.91;823471;23;831;-76
2022/10/28 01:51:41;;;;;;;9.40;4.75;;;;;;;20.25;55.60;101211.88;825880;23;1103;-76
2022/10/28 01:52:06;;;;;;;12.57;4.90;;;;;;;20.17;55.60;101198.69;816249;24;1128;-77
2022/10/28 01:52:29;;;;;;;11.88;5.10;;;;;;;20.17;55.54;101195.16;823209;24;1006;-77
2022/10/28 01:52:54;;;;;;;7.97;4.85;;;;;;;20.25;55.55;101217.19;825810;24;1042;-76
2022/10/28 01:53:19;;;;;;;10.25;4.80;;;;;;;20.14;55.58;101193.38;825796;24;1075;-77
2022/10/28 01:53:44;;;;;;;10.75;4.75;;;;;;;20.17;55.59;101198.69;828135;23;1109;-77
2022/10/28 01:54:07;;;;;;;10.55;4.75;;;;;;;20.17;55.65;101198.69;829443;23;1190;-77
2022/10/28 01:54:32;;;;;;;12.93;4.78;;;;;;;20.18;55.87;101199.56;828085;23;1346;-77
2022/10/28 01:55:01;;;;;;;13.75;4.80;;;;;;;20.13;55.65;101192.53;828163;23;1295;-77
2022/10/28 01:55:26;;;;;;;11.15;4.32;;;;;;;20.17;55.63;101209.28;824103;24;988;-77
2022/10/28 01:55:51;;;;;;;10.30;4.68;;;;;;;20.13;55.71;101200.47;825849;24;815;-77
2022/10/28 01:56:16;;;;;;;8.52;4.63;;;;;;;20.10;55.76;101194.31;820515;24;1227;-77
2022/10/28 01:56:40;;;;;;;8.95;4.65;;;;;;;20.14;55.88;101209.28;824470;24;1229;-77
2022/10/28 01:57:03;;;;;;;9.05;4.70;;;;;;;20.19;55.84;101212.81;829669;23;1035;-77
2022/10/28 01:57:29;;;;;;;10.07;4.75;;;;;;;20.11;55.78;101201.38;820171;24;1492;-77
2022/10/28 01:57:53;;;;;;;13.90;4.97;;;;;;;20.13;55.94;101207.53;820312;24;1291;-76
2022/10/28 01:58:19;;;;;;;14.38;5.60;;;;;;;20.13;55.97;101211.06;824346;24;1060;-77
2022/10/28 01:58:41;;;;;;;10.68;5.35;;;;;;;20.10;56.15;101205.75;825824;24;783;-77
2022/10/28 01:59:05;;;;;;;10.52;5.00;;;;;;;20.05;56.17;101194.34;827899;23;1312;-77
2022/10/28 01:59:27;;;;;;;9.75;5.00;;;;;;;20.07;55.99;101204.91;829959;23;754;-77
2022/10/28 01:59:49;;;;;;;8.95;5.10;;;;;;;20.06;56.21;101196.09;833163;23;1147;-77
2022/10/28 02:00:10;;;;;;;9.82;5.10;;;;;;;20.07;56.29;101202.25;832057;23;1328;-76
2022/10/28 02:00:36;;;;;;;11.27;4.90;;;;;;;20.06;56.32;101200.50;833591;23;807;-77
2022/10/28 02:01:00;;;;;;;16.15;5.25;;;;;;;20.04;56.34;101202.28;832127;23;1185;-76
2022/10/28 02:01:22;;;;;;;14.35;5.15;;;;;;;20.09;56.33;101214.59;832061;23;1077;-77
2022/10/28 02:01:42;;;;;;;13.20;5.30;;;;;;;20.06;56.42;101217.28;833273;23;802;-76
2022/10/28 02:02:03;;;;;;;8.85;4.70;;;;;;;20.00;56.48;101204.91;828078;23;1482;-77
2022/10/28 02:02:24;;;;;;;10.00;4.87;;;;;;;20.02;56.41;101201.41;824742;23;1133;-77
2022/10/28 02:02:47;;;;;;;9.63;5.10;;;;;;;19.97;56.27;101201.41;828089;23;1262;-76
2022/10/28 02:03:09;;;;;;;7.85;5.00;;;;;;;20.01;56.29;101197.88;829413;23;1059;-77
2022/10/28 02:03:31;;;;;;;8.32;4.90;;;;;;;20.02;56.23;101212.00;828370;23;1201;-77
2022/10/28 02:03:54;;;;;;;9.85;4.78;;;;;;;20.10;56.32;101223.44;828185;23;1253;-77
2022/10/28 02:04:14;;;;;;;9.43;4.85;;;;;;;20.17;55.85;101222.53;824293;24;1273;-76
2022/10/28 02:04:35;;;;;;;8.00;4.35;;;;;;;20.30;55.69;101220.69;824460;24;1230;-77
2022/10/28 02:05:24;;;;;;;8.23;4.63;;;;;;;20.27;55.35;101215.41;825616;24;1086;-77
2022/10/28 02:05:51;;;;;;;12.07;5.03;;;;;;;20.43;55.21;101231.22;827683;23;820;-76